createdAt,value
2019-03-22T00:00:44.520Z,9.70
2019-03-22T00:03:15.273Z,9.60
2019-03-22T00:05:56.554Z,9.60
2019-03-22T00:08:26.762Z,9.60
2019-03-22T00:10:56.972Z,9.60
2019-03-22T00:13:27.533Z,9.60
2019-03-22T00:15:57.712Z,9.60
2019-03-22T00:18:27.861Z,9.70
2019-03-22T00:20:58.051Z,9.70
2019-03-22T00:23:28.255Z,9.70
2019-03-22T00:25:58.490Z,9.80
2019-03-22T00:28:28.765Z,9.80
2019-03-22T00:30:59.251Z,9.80
2019-03-22T00:33:29.385Z,9.70
2019-03-22T00:35:59.596Z,9.70
2019-03-22T00:38:30.918Z,9.70
2019-03-22T00:41:01.366Z,9.60
2019-03-22T00:43:31.554Z,9.60
2019-03-22T00:46:02.195Z,9.60
2019-03-22T00:48:32.674Z,9.50
2019-03-22T00:51:03.316Z,9.50
2019-03-22T00:53:33.545Z,9.50
2019-03-22T00:56:03.805Z,9.50
2019-03-22T00:58:34.231Z,9.50
2019-03-22T01:01:04.355Z,9.50
2019-03-22T01:03:34.561Z,9.60
2019-03-22T01:06:04.893Z,9.60
2019-03-22T01:08:35.352Z,9.60
2019-03-22T01:11:11.126Z,9.60
2019-03-22T01:13:41.859Z,9.50
2019-03-22T01:16:12.108Z,9.50
2019-03-22T01:18:43.653Z,9.50
2019-03-22T01:21:14.005Z,9.50
2019-03-22T01:23:44.311Z,9.40
2019-03-22T01:26:14.522Z,9.40
2019-03-22T01:28:44.637Z,9.40
2019-03-22T01:31:14.788Z,9.30
2019-03-22T01:33:44.909Z,9.30
2019-03-22T01:36:15.024Z,9.30
2019-03-22T01:38:45.221Z,9.30
2019-03-22T01:41:15.426Z,9.30
2019-03-22T01:43:45.561Z,9.30
2019-03-22T01:46:15.662Z,9.40
2019-03-22T01:48:45.919Z,9.40
2019-03-22T01:51:16.255Z,9.40
2019-03-22T01:53:46.444Z,9.40
2019-03-22T01:56:16.666Z,9.40
2019-03-22T01:58:47.035Z,9.40
2019-03-22T02:01:17.240Z,9.40
2019-03-22T02:03:47.657Z,9.40
2019-03-22T02:06:18.191Z,9.40
2019-03-22T02:08:48.331Z,9.40
2019-03-22T02:11:18.723Z,9.30
2019-03-22T02:13:48.846Z,9.30
2019-03-22T02:16:18.972Z,9.30
2019-03-22T02:18:49.401Z,9.30
2019-03-22T02:21:19.725Z,9.30
2019-03-22T02:23:52.080Z,9.30
2019-03-22T02:26:21.896Z,9.40
2019-03-22T02:28:52.080Z,9.40
2019-03-22T02:31:22.278Z,9.40
2019-03-22T02:33:52.399Z,9.40
2019-03-22T02:36:22.598Z,9.40
2019-03-22T02:38:53.170Z,9.40
2019-03-22T02:41:23.959Z,9.40
2019-03-22T02:43:54.977Z,9.40
2019-03-22T02:46:25.153Z,9.40
2019-03-22T02:48:55.345Z,9.40
2019-03-22T02:51:25.608Z,9.40
2019-03-22T02:53:55.745Z,9.40
2019-03-22T02:56:25.936Z,9.40
2019-03-22T02:58:59.178Z,9.40
2019-03-22T03:01:30.663Z,9.30
2019-03-22T03:04:00.877Z,9.30
2019-03-22T03:06:31.437Z,9.30
2019-03-22T03:09:01.893Z,9.30
2019-03-22T03:11:32.226Z,9.30
2019-03-22T03:14:02.488Z,9.30
2019-03-22T03:16:32.712Z,9.30
2019-03-22T03:19:02.959Z,9.30
2019-03-22T03:21:33.062Z,9.30
2019-03-22T03:24:03.229Z,9.40
2019-03-22T03:26:33.397Z,9.30
2019-03-22T03:29:03.513Z,9.30
2019-03-22T03:31:33.830Z,9.30
2019-03-22T03:34:05.833Z,9.30
2019-03-22T03:36:36.167Z,9.30
2019-03-22T03:39:08.779Z,9.30
2019-03-22T03:41:38.985Z,9.30
2019-03-22T03:44:09.223Z,9.40
2019-03-22T03:46:39.362Z,9.30
2019-03-22T03:49:09.562Z,9.30
2019-03-22T03:51:39.680Z,9.30
2019-03-22T03:54:09.900Z,9.30
2019-03-22T03:56:40.116Z,9.30
2019-03-22T03:59:10.323Z,9.30
2019-03-22T04:01:40.508Z,9.30
2019-03-22T04:04:10.722Z,9.30
2019-03-22T04:06:40.849Z,9.30
2019-03-22T04:09:11.414Z,9.30
2019-03-22T04:11:41.857Z,9.40
2019-03-22T04:14:12.084Z,9.30
2019-03-22T04:16:42.277Z,9.30
2019-03-22T04:19:12.564Z,9.40
2019-03-22T04:21:42.851Z,9.40
2019-03-22T04:24:13.020Z,9.40
2019-03-22T04:26:43.325Z,9.40
2019-03-22T04:29:13.426Z,9.50
2019-03-22T04:31:45.812Z,9.50
2019-03-22T04:34:16.163Z,9.50
2019-03-22T04:36:46.552Z,9.50
2019-03-22T04:39:17.828Z,9.50
2019-03-22T04:41:48.337Z,9.40
2019-03-22T04:44:18.530Z,9.40
2019-03-22T04:46:49.114Z,9.40
2019-03-22T04:49:21.096Z,9.50
2019-03-22T04:51:52.011Z,9.40
2019-03-22T04:54:23.904Z,9.40
2019-03-22T04:56:57.004Z,9.50
2019-03-22T04:59:27.783Z,9.50
2019-03-22T05:02:02.352Z,9.40
2019-03-22T05:04:33.447Z,9.50
2019-03-22T05:07:04.166Z,9.50
2019-03-22T05:09:36.417Z,9.50
2019-03-22T05:12:08.695Z,9.40
2019-03-22T05:14:41.571Z,9.40
2019-03-22T05:17:13.141Z,9.50
2019-03-22T05:19:48.782Z,9.50
2019-03-22T05:22:21.436Z,9.50
2019-03-22T05:24:52.584Z,9.50
2019-03-22T05:27:23.618Z,9.50
2019-03-22T05:29:56.057Z,9.60
2019-03-22T05:32:28.633Z,9.60
2019-03-22T05:34:58.928Z,9.60
2019-03-22T05:37:29.180Z,9.60
2019-03-22T05:39:59.622Z,9.60
2019-03-22T05:42:29.750Z,9.60
2019-03-22T05:45:00.628Z,9.60
2019-03-22T05:47:31.063Z,9.50
2019-03-22T05:50:01.305Z,9.50
2019-03-22T05:52:31.819Z,9.60
2019-03-22T05:55:08.456Z,9.60
2019-03-22T05:57:38.931Z,9.60
2019-03-22T06:00:09.197Z,9.60
2019-03-22T06:02:39.422Z,9.60
2019-03-22T06:05:11.948Z,9.70
2019-03-22T06:07:42.068Z,9.70
2019-03-22T06:10:13.412Z,9.70
2019-03-22T06:12:55.745Z,9.80
2019-03-22T06:15:26.256Z,9.80
2019-03-22T06:17:56.489Z,9.80
2019-03-22T06:20:26.982Z,9.80
2019-03-22T06:22:57.181Z,9.80
2019-03-22T06:25:28.054Z,9.90
2019-03-22T06:27:58.277Z,9.80
2019-03-22T06:30:28.510Z,9.90
2019-03-22T06:32:58.684Z,9.90
2019-03-22T06:35:28.792Z,9.90
2019-03-22T06:37:59.978Z,9.90
2019-03-22T06:40:30.180Z,10.00
2019-03-22T06:43:02.648Z,10.00
2019-03-22T06:45:33.602Z,10.00
2019-03-22T06:48:06.126Z,10.10
2019-03-22T06:50:36.905Z,10.10
2019-03-22T06:53:07.138Z,10.10
2019-03-22T06:55:37.433Z,10.10
2019-03-22T06:58:07.674Z,10.10
2019-03-22T07:00:37.943Z,10.10
2019-03-22T07:03:10.509Z,10.20
2019-03-22T07:05:41.055Z,10.20
2019-03-22T07:08:12.250Z,10.20
2019-03-22T07:10:43.013Z,10.20
2019-03-22T07:13:18.019Z,10.20
2019-03-22T07:15:48.752Z,10.30
2019-03-22T07:18:19.582Z,10.30
2019-03-22T07:20:54.798Z,10.30
2019-03-22T07:23:25.574Z,10.30
2019-03-22T07:25:56.739Z,10.30
2019-03-22T07:28:27.919Z,10.30
2019-03-22T07:31:00.041Z,10.40
2019-03-22T07:33:30.299Z,10.40
2019-03-22T07:36:01.397Z,10.40
2019-03-22T07:38:33.416Z,10.40
2019-03-22T07:41:05.053Z,10.50
2019-03-22T07:43:35.591Z,10.50
2019-03-22T07:46:06.267Z,10.50
2019-03-22T07:48:36.844Z,10.50
2019-03-22T07:51:07.513Z,10.60
2019-03-22T07:53:40.960Z,10.60
2019-03-22T07:56:13.549Z,10.60
2019-03-22T07:58:44.497Z,10.70
2019-03-22T08:01:17.500Z,10.70
2019-03-22T08:03:49.341Z,10.80
2019-03-22T08:06:23.307Z,10.80
2019-03-22T08:08:55.742Z,10.90
2019-03-22T08:11:26.536Z,10.90
2019-03-22T08:13:57.149Z,11.00
2019-03-22T08:16:28.409Z,11.10
2019-03-22T08:18:59.054Z,11.10
2019-03-22T08:21:30.021Z,11.20
2019-03-22T08:24:03.072Z,11.20
2019-03-22T08:26:35.224Z,11.20
2019-03-22T08:29:10.293Z,11.30
2019-03-22T08:31:41.290Z,11.40
2019-03-22T08:34:12.438Z,11.40
2019-03-22T08:36:43.095Z,11.50
2019-03-22T08:39:13.766Z,11.50
2019-03-22T08:41:47.317Z,11.60
2019-03-22T08:44:17.952Z,11.70
2019-03-22T08:46:49.907Z,11.70
2019-03-22T08:49:20.776Z,11.80
2019-03-22T08:51:51.481Z,11.80
2019-03-22T08:54:24.991Z,12.00
2019-03-22T08:56:55.431Z,12.00
2019-03-22T08:59:25.796Z,12.10
2019-03-22T09:01:56.480Z,12.30
2019-03-22T09:04:33.652Z,12.40
2019-03-22T09:07:04.841Z,12.50
2019-03-22T09:09:41.426Z,12.50
2019-03-22T09:12:08.399Z,12.50
2019-03-22T09:14:39.380Z,12.40
2019-03-22T09:17:10.131Z,12.40
2019-03-22T09:19:41.809Z,12.60
2019-03-22T09:22:13.946Z,12.60
2019-03-22T09:24:44.874Z,12.60
2019-03-22T09:27:15.864Z,12.60
2019-03-22T09:29:47.493Z,12.60
2019-03-22T09:32:21.883Z,12.60
2019-03-22T09:34:52.525Z,12.60
2019-03-22T09:37:23.845Z,12.60
2019-03-22T09:39:58.140Z,12.60
2019-03-22T09:42:31.194Z,12.60
2019-03-22T09:45:02.097Z,12.60
2019-03-22T09:47:32.680Z,12.70
2019-03-22T09:50:06.895Z,12.70
2019-03-22T09:52:39.303Z,12.80
2019-03-22T09:55:18.052Z,12.90
2019-03-22T09:57:49.822Z,13.00
2019-03-22T10:00:33.961Z,12.90
2019-03-22T10:03:04.921Z,13.00
2019-03-22T10:05:37.446Z,13.10
2019-03-22T10:08:15.825Z,13.20
2019-03-22T10:10:46.402Z,13.20
2019-03-22T10:13:17.942Z,13.30
2019-03-22T10:15:48.881Z,13.40
2019-03-22T10:18:20.381Z,13.40
2019-03-22T10:20:52.349Z,13.50
2019-03-22T10:23:25.492Z,13.50
2019-03-22T10:25:57.811Z,13.50
2019-03-22T10:28:29.629Z,13.50
2019-03-22T10:31:01.315Z,13.60
2019-03-22T10:33:32.801Z,13.60
2019-03-22T10:36:03.635Z,13.70
2019-03-22T10:38:34.304Z,13.80
2019-03-22T10:41:05.336Z,14.10
2019-03-22T10:43:36.403Z,14.10
2019-03-22T10:46:08.083Z,14.30
2019-03-22T10:48:40.889Z,14.30
2019-03-22T10:51:16.888Z,14.50
2019-03-22T10:53:55.251Z,14.60
2019-03-22T10:56:33.004Z,14.70
2019-03-22T10:59:09.046Z,14.80
2019-03-22T11:01:48.594Z,15.00
2019-03-22T11:04:13.422Z,15.10
2019-03-22T11:06:44.827Z,15.10
2019-03-22T11:09:16.199Z,15.20
2019-03-22T11:11:48.734Z,15.40
2019-03-22T11:14:19.808Z,15.30
2019-03-22T11:16:51.219Z,15.40
2019-03-22T11:19:22.153Z,15.50
2019-03-22T11:21:57.299Z,15.50
2019-03-22T11:24:30.195Z,15.50
2019-03-22T11:27:01.101Z,15.50
2019-03-22T11:29:35.035Z,15.60
2019-03-22T11:32:12.540Z,15.60
2019-03-22T11:34:40.032Z,15.60
2019-03-22T11:37:11.275Z,15.50
2019-03-22T11:39:42.098Z,15.40
2019-03-22T11:42:16.295Z,15.40
2019-03-22T11:44:46.984Z,15.40
2019-03-22T11:47:18.309Z,15.60
2019-03-22T11:49:48.955Z,15.70
2019-03-22T11:52:19.973Z,15.60
2019-03-22T11:54:52.919Z,15.40
2019-03-22T11:57:24.262Z,15.30
2019-03-22T11:59:55.383Z,15.30
2019-03-22T12:02:33.312Z,15.30
2019-03-22T12:05:07.538Z,15.40
2019-03-22T12:07:41.888Z,15.40
2019-03-22T12:10:16.157Z,15.40
2019-03-22T12:12:47.125Z,15.30
2019-03-22T12:15:18.680Z,15.20
2019-03-22T12:17:50.480Z,14.90
2019-03-22T12:20:22.091Z,14.70
2019-03-22T12:22:54.706Z,14.60
2019-03-22T12:25:25.967Z,14.40
2019-03-22T12:27:56.523Z,14.40
2019-03-22T12:30:27.506Z,14.30
2019-03-22T12:32:59.623Z,14.30
2019-03-22T12:35:30.589Z,14.10
2019-03-22T12:38:01.981Z,14.10
2019-03-22T12:40:35.270Z,14.10
2019-03-22T12:43:07.129Z,14.00
2019-03-22T12:45:39.782Z,14.00
2019-03-22T12:48:11.098Z,14.00
2019-03-22T12:50:45.365Z,14.00
2019-03-22T12:53:16.607Z,14.00
2019-03-22T12:55:48.722Z,14.00
2019-03-22T12:58:19.412Z,14.00
2019-03-22T13:00:49.876Z,14.00
2019-03-22T13:03:20.914Z,14.00
2019-03-22T13:05:51.468Z,14.00
2019-03-22T13:08:21.873Z,14.00
2019-03-22T13:10:52.194Z,14.00
2019-03-22T13:13:22.301Z,14.00
2019-03-22T13:15:52.563Z,14.10
2019-03-22T13:18:23.149Z,14.10
2019-03-22T13:20:53.583Z,14.10
2019-03-22T13:23:23.785Z,14.20
2019-03-22T13:25:54.063Z,14.20
2019-03-22T13:28:24.710Z,14.20
2019-03-22T13:30:59.138Z,14.30
2019-03-22T13:33:31.004Z,14.30
2019-03-22T13:36:01.749Z,14.30
2019-03-22T13:38:35.325Z,14.30
2019-03-22T13:41:06.095Z,14.30
2019-03-22T13:43:38.695Z,14.40
2019-03-22T13:46:10.543Z,14.40
2019-03-22T13:48:41.669Z,14.40
2019-03-22T13:51:13.534Z,14.40
2019-03-22T13:53:44.404Z,14.50
2019-03-22T13:56:16.676Z,14.50
2019-03-22T13:58:49.464Z,14.50
2019-03-22T14:01:22.801Z,14.60
2019-03-22T14:03:53.701Z,14.60
2019-03-22T14:06:25.562Z,14.60
2019-03-22T14:08:55.964Z,14.60
2019-03-22T14:11:26.504Z,14.70
2019-03-22T14:13:57.529Z,14.70
2019-03-22T14:16:28.172Z,14.70
2019-03-22T14:19:00.054Z,14.80
2019-03-22T14:21:30.914Z,14.80
2019-03-22T14:24:02.939Z,14.90
2019-03-22T14:26:35.296Z,14.90
2019-03-22T14:29:06.442Z,14.90
2019-03-22T14:31:37.389Z,14.90
2019-03-22T14:34:08.281Z,15.00
2019-03-22T14:36:39.038Z,15.00
2019-03-22T14:39:09.935Z,15.10
2019-03-22T14:41:40.984Z,15.10
2019-03-22T14:44:12.053Z,15.20
2019-03-22T14:46:42.561Z,15.20
2019-03-22T14:49:13.039Z,15.20
2019-03-22T14:51:43.280Z,15.20
2019-03-22T14:54:14.028Z,15.30
2019-03-22T14:56:44.301Z,15.30
2019-03-22T14:59:14.656Z,15.30
2019-03-22T15:01:45.018Z,15.30
2019-03-22T15:04:17.614Z,15.30
2019-03-22T15:06:48.320Z,15.30
2019-03-22T15:09:18.816Z,15.30
2019-03-22T15:11:49.289Z,15.30
2019-03-22T15:14:31.081Z,15.30
2019-03-22T15:17:17.694Z,15.30
2019-03-22T15:20:23.837Z,15.30
2019-03-22T15:23:07.515Z,15.30
2019-03-22T15:25:57.229Z,15.30
2019-03-22T15:28:51.592Z,15.30
2019-03-22T15:31:40.146Z,15.30
2019-03-22T15:34:24.880Z,15.30
2019-03-22T15:37:15.430Z,15.30
2019-03-22T15:40:03.342Z,15.40
2019-03-22T15:42:34.616Z,15.30
2019-03-22T15:45:06.646Z,15.30
2019-03-22T15:47:37.551Z,15.30
2019-03-22T15:50:11.462Z,15.30
2019-03-22T15:52:44.911Z,15.30
2019-03-22T15:55:15.874Z,15.30
2019-03-22T15:57:48.446Z,15.30
2019-03-22T16:00:19.425Z,15.30
2019-03-22T16:02:50.153Z,15.30
2019-03-22T16:05:21.217Z,15.30
2019-03-22T16:07:53.153Z,15.30
2019-03-22T16:10:23.953Z,15.20
2019-03-22T16:12:54.388Z,15.20
2019-03-22T16:15:25.038Z,15.20
2019-03-22T16:17:56.024Z,15.20
2019-03-22T16:20:26.723Z,15.20
2019-03-22T16:23:10.613Z,15.20
2019-03-22T16:25:41.014Z,15.10
2019-03-22T16:28:11.652Z,15.10
2019-03-22T16:30:43.478Z,15.10
2019-03-22T16:33:13.973Z,15.10
2019-03-22T16:35:44.509Z,15.00
2019-03-22T16:38:14.888Z,15.00
2019-03-22T16:40:45.339Z,15.00
2019-03-22T16:43:19.941Z,15.00
2019-03-22T16:45:55.700Z,14.90
2019-03-22T16:48:26.513Z,14.80
2019-03-22T16:50:57.225Z,14.80
2019-03-22T16:53:28.732Z,14.70
2019-03-22T16:55:59.121Z,14.60
2019-03-22T16:58:30.168Z,14.60
2019-03-22T17:01:00.501Z,14.50
2019-03-22T17:03:31.674Z,14.50
2019-03-22T17:06:02.079Z,14.40
2019-03-22T17:08:32.541Z,14.30
2019-03-22T17:11:07.325Z,14.30
2019-03-22T17:13:38.340Z,14.20
2019-03-22T17:16:08.627Z,14.10
2019-03-22T17:18:38.771Z,14.00
2019-03-22T17:21:09.222Z,14.00
2019-03-22T17:23:39.667Z,13.90
2019-03-22T17:26:14.239Z,13.80
2019-03-22T17:28:46.972Z,13.80
2019-03-22T17:31:17.524Z,13.70
2019-03-22T17:33:47.671Z,13.60
2019-03-22T17:36:17.941Z,13.50
2019-03-22T17:38:48.278Z,13.50
2019-03-22T17:41:18.372Z,13.40
2019-03-22T17:43:48.831Z,13.40
2019-03-22T17:46:19.024Z,13.30
2019-03-22T17:48:49.633Z,13.20
2019-03-22T17:51:19.831Z,13.20
2019-03-22T17:53:53.429Z,13.10
2019-03-22T17:56:23.908Z,13.00
2019-03-22T17:58:54.870Z,13.00
2019-03-22T18:01:25.680Z,12.90
2019-03-22T18:03:56.616Z,12.90
2019-03-22T18:06:27.186Z,12.80
2019-03-22T18:09:00.386Z,12.80
2019-03-22T18:11:31.128Z,12.70
2019-03-22T18:14:01.433Z,12.60
2019-03-22T18:16:31.836Z,12.60
2019-03-22T18:19:02.664Z,12.60
2019-03-22T18:21:34.388Z,12.50
2019-03-22T18:24:09.579Z,12.50
2019-03-22T18:26:40.396Z,12.40
2019-03-22T18:29:10.817Z,12.40
2019-03-22T18:31:41.042Z,12.40
2019-03-22T18:34:11.202Z,12.30
2019-03-22T18:36:45.318Z,12.30
2019-03-22T18:39:16.072Z,12.30
2019-03-22T18:41:46.921Z,12.30
2019-03-22T18:44:21.292Z,12.20
2019-03-22T18:46:52.656Z,12.20
2019-03-22T18:49:23.305Z,12.20
2019-03-22T18:51:53.589Z,12.20
2019-03-22T18:54:23.773Z,12.10
2019-03-22T18:56:55.309Z,12.10
2019-03-22T18:59:26.836Z,12.10
2019-03-22T19:01:57.128Z,12.10
2019-03-22T19:04:28.092Z,12.00
2019-03-22T19:07:00.393Z,12.00
2019-03-22T19:09:33.460Z,12.00
2019-03-22T19:12:03.792Z,11.90
2019-03-22T19:14:34.180Z,11.90
2019-03-22T19:17:06.009Z,11.80
2019-03-22T19:19:36.460Z,11.80
2019-03-22T19:22:06.950Z,11.80
2019-03-22T19:24:38.552Z,11.70
2019-03-22T19:27:08.795Z,11.70
2019-03-22T19:29:40.335Z,11.70
2019-03-22T19:32:13.819Z,11.70
2019-03-22T19:34:54.000Z,11.60
2019-03-22T19:37:17.460Z,11.60
2019-03-22T19:39:48.136Z,11.50
2019-03-22T19:42:18.437Z,11.50
2019-03-22T19:44:48.735Z,11.50
2019-03-22T19:47:19.084Z,11.50
2019-03-22T19:49:49.561Z,11.40
2019-03-22T19:52:23.310Z,11.30
2019-03-22T19:54:54.223Z,11.30
2019-03-22T19:57:26.741Z,11.30
2019-03-22T19:59:57.748Z,11.30
2019-03-22T20:02:28.144Z,11.30
2019-03-22T20:05:04.732Z,11.20
2019-03-22T20:07:30.804Z,11.10
2019-03-22T20:10:01.092Z,11.10
2019-03-22T20:12:31.524Z,11.00
2019-03-22T20:15:02.788Z,11.10
2019-03-22T20:17:33.060Z,11.00
2019-03-22T20:20:03.296Z,11.00
2019-03-22T20:22:35.458Z,11.00
2019-03-22T20:25:11.328Z,10.90
2019-03-22T20:27:41.437Z,10.90
2019-03-22T20:30:12.881Z,10.80
2019-03-22T20:32:45.552Z,10.90
2019-03-22T20:35:17.057Z,10.80
2019-03-22T20:37:47.503Z,10.70
2019-03-22T20:40:17.953Z,10.70
2019-03-22T20:42:50.959Z,10.60
2019-03-22T20:45:24.349Z,10.60
2019-03-22T20:47:54.049Z,10.60
2019-03-22T20:50:35.391Z,10.60
2019-03-22T20:53:01.979Z,10.60
2019-03-22T20:55:32.300Z,10.50
2019-03-22T20:58:02.461Z,10.50
2019-03-22T21:00:32.672Z,10.50
2019-03-22T21:03:02.820Z,10.50
2019-03-22T21:05:33.233Z,10.40
2019-03-22T21:08:03.544Z,10.40
2019-03-22T21:10:34.339Z,10.30
2019-03-22T21:13:05.100Z,10.30
2019-03-22T21:15:36.715Z,10.20
2019-03-22T21:18:07.086Z,10.20
2019-03-22T21:20:37.376Z,10.10
2019-03-22T21:23:07.668Z,10.10
2019-03-22T21:25:38.150Z,10.10
2019-03-22T21:28:09.969Z,10.00
2019-03-22T21:30:42.222Z,9.90
2019-03-22T21:33:12.333Z,9.90
2019-03-22T21:35:42.684Z,9.80
2019-03-22T21:38:15.591Z,9.80
2019-03-22T21:40:45.480Z,9.80
2019-03-22T21:43:16.592Z,9.80
2019-03-22T21:45:47.388Z,9.70
2019-03-22T21:48:18.221Z,9.60
2019-03-22T21:50:51.735Z,9.60
2019-03-22T21:53:22.208Z,9.60
2019-03-22T21:55:54.444Z,9.60
2019-03-22T21:58:30.877Z,9.60
2019-03-22T22:01:01.631Z,9.60
2019-03-22T22:03:31.876Z,9.60
2019-03-22T22:06:03.327Z,9.50
2019-03-22T22:08:33.596Z,9.50
2019-03-22T22:11:11.824Z,9.50
2019-03-22T22:13:42.257Z,9.40
2019-03-22T22:16:12.439Z,9.40
2019-03-22T22:18:42.765Z,9.30
2019-03-22T22:21:13.372Z,9.30
2019-03-22T22:23:43.476Z,9.30
2019-03-22T22:26:14.171Z,9.30
2019-03-22T22:28:44.593Z,9.20
2019-03-22T22:31:14.877Z,9.20
2019-03-22T22:33:45.109Z,9.10
2019-03-22T22:36:15.301Z,9.10
2019-03-22T22:38:46.574Z,9.10
2019-03-22T22:41:16.908Z,9.00
2019-03-22T22:43:47.215Z,9.00
2019-03-22T22:46:17.756Z,9.00
2019-03-22T22:48:48.299Z,9.00
2019-03-22T22:51:19.109Z,8.90
2019-03-22T22:53:49.719Z,8.90
2019-03-22T22:56:22.668Z,8.80
2019-03-22T22:58:52.949Z,8.80
2019-03-22T23:01:23.518Z,8.80
2019-03-22T23:03:54.678Z,8.70
2019-03-22T23:06:25.695Z,8.70
2019-03-22T23:08:55.868Z,8.70
2019-03-22T23:11:26.160Z,8.70
2019-03-22T23:13:57.998Z,8.60
2019-03-22T23:16:28.187Z,8.50
2019-03-22T23:18:58.291Z,8.50
2019-03-22T23:21:29.679Z,8.50
2019-03-22T23:24:01.538Z,8.50
2019-03-22T23:26:31.652Z,8.40
2019-03-22T23:29:01.737Z,8.40
2019-03-22T23:31:32.180Z,8.40
2019-03-22T23:34:02.345Z,8.40
2019-03-22T23:36:32.513Z,8.30
2019-03-22T23:39:02.712Z,8.30
2019-03-22T23:41:33.174Z,8.30
2019-03-22T23:44:03.259Z,8.30
2019-03-22T23:46:33.371Z,8.30
2019-03-22T23:49:03.796Z,8.30
2019-03-22T23:51:34.191Z,8.30
2019-03-22T23:54:04.626Z,8.30
2019-03-22T23:56:34.818Z,8.30
2019-03-22T23:59:04.956Z,8.30
